Yanji, China
Current Conditions -  °F | °C
As of 3:30 PM on Tuesday 21 Oct 2014 (Local Time) from UHWW Reporting Station
Scattered Clouds Scattered Clouds  
Wind Chill: 34°   Ceiling: Unl
Heat Index: 41°   Visibility: 6mi
Dew Point:   Wind: 11mph
Humidity: 19%   Direction: 350°N
Pressure: 30.21"   Gusts: NA
Location:  42.88°N, 129.52°E
Report Text: UHWW 210730Z 35005MPS 9999 SCT200 05/M17 Q1023 NOSIG RMKQFE766/1022 25CLRD70
Loading
Personal Weather Stations






























Interactive Weather Map
Tropical Storm Tracking
New forecast layout! Learn more

10-Day Weather Forecast

Advertisements
Track Severe Weather on mobile